sensor_id;sensor_type;location;lat;lon;timestamp;temperature;humidity
32536;DHT22;18974;50.838;4.636;2023-08-08T00:00:10;14.10;99.90
32536;DHT22;18974;50.838;4.636;2023-08-08T00:02:36;14.10;99.90
32536;DHT22;18974;50.838;4.636;2023-08-08T00:05:02;14.10;99.90
32536;DHT22;18974;50.838;4.636;2023-08-08T00:07:27;14.10;99.90
32536;DHT22;18974;50.838;4.636;2023-08-08T00:09:56;14.20;99.90
32536;DHT22;18974;50.838;4.636;2023-08-08T00:12:22;14.20;99.90
32536;DHT22;18974;50.838;4.636;2023-08-08T00:14:48;14.20;99.90
32536;DHT22;18974;50.838;4.636;2023-08-08T00:17:14;14.20;99.90
32536;DHT22;18974;50.838;4.636;2023-08-08T00:19:40;14.10;99.90
32536;DHT22;18974;50.838;4.636;2023-08-08T00:22:06;14.10;99.90
32536;DHT22;18974;50.838;4.636;2023-08-08T00:24:32;14.10;99.90
32536;DHT22;18974;50.838;4.636;2023-08-08T00:26:58;14.00;99.90
32536;DHT22;18974;50.838;4.636;2023-08-08T00:29:24;14.10;99.90
32536;DHT22;18974;50.838;4.636;2023-08-08T00:31:50;14.10;99.90
32536;DHT22;18974;50.838;4.636;2023-08-08T00:34:16;14.10;99.90
32536;DHT22;18974;50.838;4.636;2023-08-08T00:36:41;14.10;99.90
32536;DHT22;18974;50.838;4.636;2023-08-08T00:39:07;14.20;99.90
32536;DHT22;18974;50.838;4.636;2023-08-08T00:41:33;14.10;99.90
32536;DHT22;18974;50.838;4.636;2023-08-08T00:43:59;14.10;99.90
32536;DHT22;18974;50.838;4.636;2023-08-08T00:46:25;14.10;99.90
32536;DHT22;18974;50.838;4.636;2023-08-08T00:48:54;14.10;99.90
32536;DHT22;18974;50.838;4.636;2023-08-08T00:51:20;14.10;99.90
32536;DHT22;18974;50.838;4.636;2023-08-08T00:53:47;14.10;99.90
32536;DHT22;18974;50.838;4.636;2023-08-08T00:56:13;14.10;99.90
32536;DHT22;18974;50.838;4.636;2023-08-08T00:58:43;14.10;99.90
32536;DHT22;18974;50.838;4.636;2023-08-08T01:01:11;14.10;99.90
32536;DHT22;18974;50.838;4.636;2023-08-08T01:03:37;14.10;99.90
32536;DHT22;18974;50.838;4.636;2023-08-08T01:06:29;14.10;99.90
32536;DHT22;18974;50.838;4.636;2023-08-08T01:09:13;14.10;99.90
32536;DHT22;18974;50.838;4.636;2023-08-08T01:11:44;14.10;99.90
32536;DHT22;18974;50.838;4.636;2023-08-08T01:14:14;14.20;99.90
32536;DHT22;18974;50.838;4.636;2023-08-08T01:16:41;14.20;99.90
32536;DHT22;18974;50.838;4.636;2023-08-08T01:19:10;14.20;99.90
32536;DHT22;18974;50.838;4.636;2023-08-08T01:21:37;14.10;99.90
32536;DHT22;18974;50.838;4.636;2023-08-08T01:24:17;14.10;99.90
32536;DHT22;18974;50.838;4.636;2023-08-08T01:26:43;14.20;99.90
32536;DHT22;18974;50.838;4.636;2023-08-08T01:29:09;14.10;99.90
32536;DHT22;18974;50.838;4.636;2023-08-08T01:31:35;14.10;99.90
32536;DHT22;18974;50.838;4.636;2023-08-08T01:34:01;14.10;99.90
32536;DHT22;18974;50.838;4.636;2023-08-08T01:36:46;14.10;99.90
32536;DHT22;18974;50.838;4.636;2023-08-08T01:39:17;14.10;99.90
32536;DHT22;18974;50.838;4.636;2023-08-08T01:41:44;14.20;99.90
32536;DHT22;18974;50.838;4.636;2023-08-08T01:44:10;14.10;99.90
32536;DHT22;18974;50.838;4.636;2023-08-08T01:46:36;14.20;99.90
32536;DHT22;18974;50.838;4.636;2023-08-08T01:49:04;14.20;99.90
32536;DHT22;18974;50.838;4.636;2023-08-08T01:51:29;14.30;99.90
32536;DHT22;18974;50.838;4.636;2023-08-08T01:53:55;14.30;99.90
32536;DHT22;18974;50.838;4.636;2023-08-08T01:56:21;14.30;99.90
32536;DHT22;18974;50.838;4.636;2023-08-08T01:58:47;14.20;99.90
32536;DHT22;18974;50.838;4.636;2023-08-08T02:01:13;14.20;99.90
32536;DHT22;18974;50.838;4.636;2023-08-08T02:03:38;14.20;99.90
32536;DHT22;18974;50.838;4.636;2023-08-08T02:06:04;14.30;99.90
32536;DHT22;18974;50.838;4.636;2023-08-08T02:08:30;14.30;99.90
32536;DHT22;18974;50.838;4.636;2023-08-08T02:10:55;14.30;99.90
32536;DHT22;18974;50.838;4.636;2023-08-08T02:13:21;14.30;99.90
32536;DHT22;18974;50.838;4.636;2023-08-08T02:15:47;14.20;99.90
32536;DHT22;18974;50.838;4.636;2023-08-08T02:18:12;14.30;99.90
32536;DHT22;18974;50.838;4.636;2023-08-08T02:20:38;14.30;99.90
32536;DHT22;18974;50.838;4.636;2023-08-08T02:23:04;14.30;99.90
32536;DHT22;18974;50.838;4.636;2023-08-08T02:25:30;14.40;99.90
32536;DHT22;18974;50.838;4.636;2023-08-08T02:27:56;14.30;99.90
32536;DHT22;18974;50.838;4.636;2023-08-08T02:30:22;14.30;99.90
32536;DHT22;18974;50.838;4.636;2023-08-08T02:32:48;14.30;99.90
32536;DHT22;18974;50.838;4.636;2023-08-08T02:35:14;14.30;99.90
32536;DHT22;18974;50.838;4.636;2023-08-08T02:37:39;14.30;99.90
32536;DHT22;18974;50.838;4.636;2023-08-08T02:40:06;14.30;99.90
32536;DHT22;18974;50.838;4.636;2023-08-08T02:42:32;14.40;99.90
32536;DHT22;18974;50.838;4.636;2023-08-08T02:44:57;14.40;99.90
32536;DHT22;18974;50.838;4.636;2023-08-08T02:47:23;14.40;99.90
32536;DHT22;18974;50.838;4.636;2023-08-08T02:49:50;14.40;99.90
32536;DHT22;18974;50.838;4.636;2023-08-08T02:52:15;14.40;99.90
32536;DHT22;18974;50.838;4.636;2023-08-08T02:54:41;14.30;99.90
32536;DHT22;18974;50.838;4.636;2023-08-08T02:57:07;14.40;99.90
32536;DHT22;18974;50.838;4.636;2023-08-08T02:59:36;14.30;99.90
32536;DHT22;18974;50.838;4.636;2023-08-08T03:02:02;14.30;99.90
32536;DHT22;18974;50.838;4.636;2023-08-08T03:04:29;14.30;99.90
32536;DHT22;18974;50.838;4.636;2023-08-08T03:06:55;14.30;99.90
32536;DHT22;18974;50.838;4.636;2023-08-08T03:09:21;14.20;99.90
32536;DHT22;18974;50.838;4.636;2023-08-08T03:11:46;14.20;99.90
32536;DHT22;18974;50.838;4.636;2023-08-08T03:14:12;14.10;99.90
32536;DHT22;18974;50.838;4.636;2023-08-08T03:16:38;14.20;99.90
32536;DHT22;18974;50.838;4.636;2023-08-08T03:19:04;14.10;99.90
32536;DHT22;18974;50.838;4.636;2023-08-08T03:21:29;14.10;99.90
32536;DHT22;18974;50.838;4.636;2023-08-08T03:23:56;14.20;99.90
32536;DHT22;18974;50.838;4.636;2023-08-08T03:26:22;14.10;99.90
32536;DHT22;18974;50.838;4.636;2023-08-08T03:28:48;14.00;99.90
32536;DHT22;18974;50.838;4.636;2023-08-08T03:31:19;14.10;99.90
32536;DHT22;18974;50.838;4.636;2023-08-08T03:33:46;14.10;99.90
32536;DHT22;18974;50.838;4.636;2023-08-08T03:36:13;14.00;99.90
32536;DHT22;18974;50.838;4.636;2023-08-08T03:38:39;14.00;99.90
32536;DHT22;18974;50.838;4.636;2023-08-08T03:41:05;14.00;99.90
32536;DHT22;18974;50.838;4.636;2023-08-08T03:43:30;13.90;99.90
32536;DHT22;18974;50.838;4.636;2023-08-08T03:45:56;13.90;99.90
32536;DHT22;18974;50.838;4.636;2023-08-08T03:48:22;13.90;99.90
32536;DHT22;18974;50.838;4.636;2023-08-08T03:50:48;13.90;99.90
32536;DHT22;18974;50.838;4.636;2023-08-08T03:53:14;13.80;99.90
32536;DHT22;18974;50.838;4.636;2023-08-08T03:55:39;13.90;99.90
32536;DHT22;18974;50.838;4.636;2023-08-08T03:58:05;13.90;99.90
32536;DHT22;18974;50.838;4.636;2023-08-08T04:00:31;13.90;99.90
32536;DHT22;18974;50.838;4.636;2023-08-08T04:02:57;13.90;99.90
32536;DHT22;18974;50.838;4.636;2023-08-08T04:05:23;13.80;99.90
32536;DHT22;18974;50.838;4.636;2023-08-08T04:07:49;13.80;99.90
32536;DHT22;18974;50.838;4.636;2023-08-08T04:10:15;13.80;99.90
32536;DHT22;18974;50.838;4.636;2023-08-08T04:12:40;13.80;99.90
32536;DHT22;18974;50.838;4.636;2023-08-08T04:15:06;13.80;99.90
32536;DHT22;18974;50.838;4.636;2023-08-08T04:17:32;13.80;99.90
32536;DHT22;18974;50.838;4.636;2023-08-08T04:19:58;13.80;99.90
32536;DHT22;18974;50.838;4.636;2023-08-08T04:22:24;13.80;99.90
32536;DHT22;18974;50.838;4.636;2023-08-08T04:24:49;13.80;99.90
32536;DHT22;18974;50.838;4.636;2023-08-08T04:27:15;13.80;99.90
32536;DHT22;18974;50.838;4.636;2023-08-08T04:29:42;13.80;99.90
32536;DHT22;18974;50.838;4.636;2023-08-08T04:32:07;13.80;99.90
32536;DHT22;18974;50.838;4.636;2023-08-08T04:34:33;13.90;99.90
32536;DHT22;18974;50.838;4.636;2023-08-08T04:36:59;13.80;99.90
32536;DHT22;18974;50.838;4.636;2023-08-08T04:39:24;13.90;99.90
32536;DHT22;18974;50.838;4.636;2023-08-08T04:41:50;13.80;99.90
32536;DHT22;18974;50.838;4.636;2023-08-08T04:44:16;13.90;99.90
32536;DHT22;18974;50.838;4.636;2023-08-08T04:46:41;14.00;99.90
32536;DHT22;18974;50.838;4.636;2023-08-08T04:49:07;14.00;99.90
32536;DHT22;18974;50.838;4.636;2023-08-08T04:51:33;13.90;99.90
32536;DHT22;18974;50.838;4.636;2023-08-08T04:53:58;14.00;99.90
32536;DHT22;18974;50.838;4.636;2023-08-08T04:56:24;13.90;99.90
32536;DHT22;18974;50.838;4.636;2023-08-08T04:58:50;14.00;99.90
32536;DHT22;18974;50.838;4.636;2023-08-08T05:01:15;14.10;99.90
32536;DHT22;18974;50.838;4.636;2023-08-08T05:03:43;14.20;99.90
32536;DHT22;18974;50.838;4.636;2023-08-08T05:06:08;14.20;99.90
32536;DHT22;18974;50.838;4.636;2023-08-08T05:08:34;14.30;99.90
32536;DHT22;18974;50.838;4.636;2023-08-08T05:11:00;14.40;99.90
32536;DHT22;18974;50.838;4.636;2023-08-08T05:13:26;14.40;99.90
32536;DHT22;18974;50.838;4.636;2023-08-08T05:15:51;14.40;99.90
32536;DHT22;18974;50.838;4.636;2023-08-08T05:18:17;14.50;99.90
32536;DHT22;18974;50.838;4.636;2023-08-08T05:20:43;14.60;99.90
32536;DHT22;18974;50.838;4.636;2023-08-08T05:23:08;14.60;99.90
32536;DHT22;18974;50.838;4.636;2023-08-08T05:25:34;14.60;99.90
32536;DHT22;18974;50.838;4.636;2023-08-08T05:27:59;14.70;99.90
32536;DHT22;18974;50.838;4.636;2023-08-08T05:30:25;14.80;99.90
32536;DHT22;18974;50.838;4.636;2023-08-08T05:32:51;14.80;99.90
32536;DHT22;18974;50.838;4.636;2023-08-08T05:35:18;14.80;99.90
32536;DHT22;18974;50.838;4.636;2023-08-08T05:37:44;14.90;99.90
32536;DHT22;18974;50.838;4.636;2023-08-08T05:40:10;14.90;99.90
32536;DHT22;18974;50.838;4.636;2023-08-08T05:42:37;15.00;99.90
32536;DHT22;18974;50.838;4.636;2023-08-08T05:45:03;15.10;99.90
32536;DHT22;18974;50.838;4.636;2023-08-08T05:47:28;15.30;99.90
32536;DHT22;18974;50.838;4.636;2023-08-08T05:49:54;15.30;99.90
32536;DHT22;18974;50.838;4.636;2023-08-08T05:52:20;15.40;99.90
32536;DHT22;18974;50.838;4.636;2023-08-08T05:54:47;15.50;99.90
32536;DHT22;18974;50.838;4.636;2023-08-08T05:57:12;15.70;99.90
32536;DHT22;18974;50.838;4.636;2023-08-08T05:59:38;15.70;99.90
32536;DHT22;18974;50.838;4.636;2023-08-08T06:02:04;15.90;99.90
32536;DHT22;18974;50.838;4.636;2023-08-08T06:04:30;16.10;99.90
32536;DHT22;18974;50.838;4.636;2023-08-08T06:06:55;16.30;99.90
32536;DHT22;18974;50.838;4.636;2023-08-08T06:09:21;16.50;99.90
32536;DHT22;18974;50.838;4.636;2023-08-08T06:11:47;16.70;99.90
32536;DHT22;18974;50.838;4.636;2023-08-08T06:14:13;16.50;99.90
32536;DHT22;18974;50.838;4.636;2023-08-08T06:16:39;16.50;99.90
32536;DHT22;18974;50.838;4.636;2023-08-08T06:19:05;16.30;99.90
32536;DHT22;18974;50.838;4.636;2023-08-08T06:21:31;16.30;99.90
32536;DHT22;18974;50.838;4.636;2023-08-08T06:23:57;16.30;99.90
32536;DHT22;18974;50.838;4.636;2023-08-08T06:26:23;16.50;99.90
32536;DHT22;18974;50.838;4.636;2023-08-08T06:28:49;16.60;99.90
32536;DHT22;18974;50.838;4.636;2023-08-08T06:31:17;16.60;99.90
32536;DHT22;18974;50.838;4.636;2023-08-08T06:33:43;16.70;99.90
32536;DHT22;18974;50.838;4.636;2023-08-08T06:36:09;16.70;99.90
32536;DHT22;18974;50.838;4.636;2023-08-08T06:38:34;16.80;99.90
32536;DHT22;18974;50.838;4.636;2023-08-08T06:41:02;16.90;99.90
32536;DHT22;18974;50.838;4.636;2023-08-08T06:43:27;17.00;99.90
32536;DHT22;18974;50.838;4.636;2023-08-08T06:45:53;17.10;99.90
32536;DHT22;18974;50.838;4.636;2023-08-08T06:48:19;17.10;99.90
32536;DHT22;18974;50.838;4.636;2023-08-08T06:50:44;17.30;99.90
32536;DHT22;18974;50.838;4.636;2023-08-08T06:53:10;17.40;99.90
32536;DHT22;18974;50.838;4.636;2023-08-08T06:55:36;17.70;99.90
32536;DHT22;18974;50.838;4.636;2023-08-08T06:58:02;17.90;99.90
32536;DHT22;18974;50.838;4.636;2023-08-08T07:00:28;18.10;99.90
32536;DHT22;18974;50.838;4.636;2023-08-08T07:02:54;18.30;99.90
32536;DHT22;18974;50.838;4.636;2023-08-08T07:05:20;18.50;99.90
32536;DHT22;18974;50.838;4.636;2023-08-08T07:07:49;18.70;99.90
32536;DHT22;18974;50.838;4.636;2023-08-08T07:10:15;18.60;99.90
32536;DHT22;18974;50.838;4.636;2023-08-08T07:12:41;18.60;99.90
32536;DHT22;18974;50.838;4.636;2023-08-08T07:15:07;18.60;99.90
32536;DHT22;18974;50.838;4.636;2023-08-08T07:17:33;18.80;99.90
32536;DHT22;18974;50.838;4.636;2023-08-08T07:19:59;19.10;99.90
32536;DHT22;18974;50.838;4.636;2023-08-08T07:22:25;19.30;99.90
32536;DHT22;18974;50.838;4.636;2023-08-08T07:24:51;19.50;99.90
32536;DHT22;18974;50.838;4.636;2023-08-08T07:27:17;19.60;99.90
32536;DHT22;18974;50.838;4.636;2023-08-08T07:29:42;19.70;99.90
32536;DHT22;18974;50.838;4.636;2023-08-08T07:32:08;19.50;99.90
32536;DHT22;18974;50.838;4.636;2023-08-08T07:34:34;19.40;99.90
32536;DHT22;18974;50.838;4.636;2023-08-08T07:37:00;19.10;99.90
32536;DHT22;18974;50.838;4.636;2023-08-08T07:39:26;19.10;99.90
32536;DHT22;18974;50.838;4.636;2023-08-08T07:41:52;19.20;99.90
32536;DHT22;18974;50.838;4.636;2023-08-08T07:44:18;19.20;99.90
32536;DHT22;18974;50.838;4.636;2023-08-08T07:46:43;19.20;99.90
32536;DHT22;18974;50.838;4.636;2023-08-08T07:49:09;19.30;99.90
32536;DHT22;18974;50.838;4.636;2023-08-08T07:51:35;19.30;99.90
32536;DHT22;18974;50.838;4.636;2023-08-08T07:54:01;19.30;99.90
32536;DHT22;18974;50.838;4.636;2023-08-08T07:56:27;19.30;99.90
32536;DHT22;18974;50.838;4.636;2023-08-08T07:58:53;19.30;99.90
32536;DHT22;18974;50.838;4.636;2023-08-08T08:01:18;19.50;99.90
32536;DHT22;18974;50.838;4.636;2023-08-08T08:03:44;19.60;99.90
32536;DHT22;18974;50.838;4.636;2023-08-08T08:06:11;19.70;99.90
32536;DHT22;18974;50.838;4.636;2023-08-08T08:08:37;19.80;99.90
32536;DHT22;18974;50.838;4.636;2023-08-08T08:11:03;19.90;99.90
32536;DHT22;18974;50.838;4.636;2023-08-08T08:13:29;20.00;99.90
32536;DHT22;18974;50.838;4.636;2023-08-08T08:15:55;20.00;99.90
32536;DHT22;18974;50.838;4.636;2023-08-08T08:18:21;20.00;99.90
32536;DHT22;18974;50.838;4.636;2023-08-08T08:20:47;20.20;99.90
32536;DHT22;18974;50.838;4.636;2023-08-08T08:23:13;20.20;99.90
32536;DHT22;18974;50.838;4.636;2023-08-08T08:25:39;20.10;99.90
32536;DHT22;18974;50.838;4.636;2023-08-08T08:28:04;20.00;99.90
32536;DHT22;18974;50.838;4.636;2023-08-08T08:30:30;20.00;99.90
32536;DHT22;18974;50.838;4.636;2023-08-08T08:32:56;20.20;99.90
32536;DHT22;18974;50.838;4.636;2023-08-08T08:35:24;20.20;99.90
32536;DHT22;18974;50.838;4.636;2023-08-08T08:37:50;20.20;99.90
32536;DHT22;18974;50.838;4.636;2023-08-08T08:40:17;20.30;99.90
32536;DHT22;18974;50.838;4.636;2023-08-08T08:42:44;20.40;99.90
32536;DHT22;18974;50.838;4.636;2023-08-08T08:45:11;20.40;99.90
32536;DHT22;18974;50.838;4.636;2023-08-08T08:47:41;20.40;99.90
32536;DHT22;18974;50.838;4.636;2023-08-08T08:50:09;20.50;99.90
32536;DHT22;18974;50.838;4.636;2023-08-08T08:52:35;20.40;99.90
32536;DHT22;18974;50.838;4.636;2023-08-08T08:55:01;20.40;99.90
32536;DHT22;18974;50.838;4.636;2023-08-08T08:57:28;20.50;99.90
32536;DHT22;18974;50.838;4.636;2023-08-08T08:59:54;20.60;99.90
32536;DHT22;18974;50.838;4.636;2023-08-08T09:02:20;20.60;99.90
32536;DHT22;18974;50.838;4.636;2023-08-08T09:04:47;20.60;99.90
32536;DHT22;18974;50.838;4.636;2023-08-08T09:07:14;20.80;99.90
32536;DHT22;18974;50.838;4.636;2023-08-08T09:09:43;20.90;99.90
32536;DHT22;18974;50.838;4.636;2023-08-08T09:12:09;21.00;99.90
32536;DHT22;18974;50.838;4.636;2023-08-08T09:14:40;21.10;99.90
32536;DHT22;18974;50.838;4.636;2023-08-08T09:17:12;21.20;99.90
32536;DHT22;18974;50.838;4.636;2023-08-08T09:19:42;21.30;99.90
32536;DHT22;18974;50.838;4.636;2023-08-08T09:22:08;21.20;99.90
32536;DHT22;18974;50.838;4.636;2023-08-08T09:24:38;21.20;99.90
32536;DHT22;18974;50.838;4.636;2023-08-08T09:27:04;21.30;99.90
32536;DHT22;18974;50.838;4.636;2023-08-08T09:29:31;21.50;99.90
32536;DHT22;18974;50.838;4.636;2023-08-08T09:31:58;21.70;99.90
32536;DHT22;18974;50.838;4.636;2023-08-08T09:34:27;21.80;99.90
32536;DHT22;18974;50.838;4.636;2023-08-08T09:36:54;21.90;99.90
32536;DHT22;18974;50.838;4.636;2023-08-08T09:39:20;22.10;99.90
32536;DHT22;18974;50.838;4.636;2023-08-08T09:41:47;22.30;99.90
32536;DHT22;18974;50.838;4.636;2023-08-08T09:44:13;22.50;99.90
32536;DHT22;18974;50.838;4.636;2023-08-08T09:46:39;22.50;99.90
32536;DHT22;18974;50.838;4.636;2023-08-08T09:49:05;22.60;99.90
32536;DHT22;18974;50.838;4.636;2023-08-08T09:51:31;22.70;99.90
32536;DHT22;18974;50.838;4.636;2023-08-08T09:53:59;23.10;99.90
32536;DHT22;18974;50.838;4.636;2023-08-08T09:56:26;23.20;99.90
32536;DHT22;18974;50.838;4.636;2023-08-08T09:58:52;23.20;99.90
32536;DHT22;18974;50.838;4.636;2023-08-08T10:01:19;23.20;99.90
32536;DHT22;18974;50.838;4.636;2023-08-08T10:03:45;23.10;99.90
32536;DHT22;18974;50.838;4.636;2023-08-08T10:06:12;23.20;99.90
32536;DHT22;18974;50.838;4.636;2023-08-08T10:08:38;23.10;99.90
32536;DHT22;18974;50.838;4.636;2023-08-08T10:11:06;22.70;99.90
32536;DHT22;18974;50.838;4.636;2023-08-08T10:13:35;22.40;99.90
32536;DHT22;18974;50.838;4.636;2023-08-08T10:16:07;22.20;99.90
32536;DHT22;18974;50.838;4.636;2023-08-08T10:18:33;22.20;99.90
32536;DHT22;18974;50.838;4.636;2023-08-08T10:20:59;22.20;99.90
32536;DHT22;18974;50.838;4.636;2023-08-08T10:23:25;22.30;99.90
32536;DHT22;18974;50.838;4.636;2023-08-08T10:25:52;22.20;99.90
32536;DHT22;18974;50.838;4.636;2023-08-08T10:28:21;22.00;99.90
32536;DHT22;18974;50.838;4.636;2023-08-08T10:30:52;21.80;99.90
32536;DHT22;18974;50.838;4.636;2023-08-08T10:33:23;21.50;99.90
32536;DHT22;18974;50.838;4.636;2023-08-08T10:38:22;21.10;99.90
32536;DHT22;18974;50.838;4.636;2023-08-08T10:40:53;20.90;99.90
32536;DHT22;18974;50.838;4.636;2023-08-08T10:43:28;20.70;99.90
32536;DHT22;18974;50.838;4.636;2023-08-08T10:45:57;20.40;99.90
32536;DHT22;18974;50.838;4.636;2023-08-08T10:48:24;20.30;99.90
32536;DHT22;18974;50.838;4.636;2023-08-08T10:50:50;20.10;99.90
32536;DHT22;18974;50.838;4.636;2023-08-08T10:53:23;19.90;99.90
32536;DHT22;18974;50.838;4.636;2023-08-08T10:56:03;19.80;99.90
32536;DHT22;18974;50.838;4.636;2023-08-08T10:58:37;19.80;99.90
32536;DHT22;18974;50.838;4.636;2023-08-08T11:01:04;19.70;99.90
32536;DHT22;18974;50.838;4.636;2023-08-08T11:03:37;19.80;99.90
32536;DHT22;18974;50.838;4.636;2023-08-08T11:06:04;19.90;99.90
32536;DHT22;18974;50.838;4.636;2023-08-08T11:08:31;19.90;99.90
32536;DHT22;18974;50.838;4.636;2023-08-08T11:10:58;19.90;99.90
32536;DHT22;18974;50.838;4.636;2023-08-08T11:13:24;19.90;99.90
32536;DHT22;18974;50.838;4.636;2023-08-08T11:15:49;19.70;99.90
32536;DHT22;18974;50.838;4.636;2023-08-08T11:18:16;19.60;99.90
32536;DHT22;18974;50.838;4.636;2023-08-08T11:20:45;19.60;99.90
32536;DHT22;18974;50.838;4.636;2023-08-08T11:23:10;19.70;99.90
32536;DHT22;18974;50.838;4.636;2023-08-08T11:25:41;19.90;99.90
32536;DHT22;18974;50.838;4.636;2023-08-08T11:28:07;20.20;99.90
32536;DHT22;18974;50.838;4.636;2023-08-08T11:30:35;20.50;99.90
32536;DHT22;18974;50.838;4.636;2023-08-08T11:33:02;20.70;99.90
32536;DHT22;18974;50.838;4.636;2023-08-08T11:35:29;20.90;99.90
32536;DHT22;18974;50.838;4.636;2023-08-08T11:37:56;21.10;99.90
32536;DHT22;18974;50.838;4.636;2023-08-08T11:40:24;21.30;99.90
32536;DHT22;18974;50.838;4.636;2023-08-08T11:42:51;21.60;99.90
32536;DHT22;18974;50.838;4.636;2023-08-08T11:45:18;21.80;99.90
32536;DHT22;18974;50.838;4.636;2023-08-08T11:47:44;22.20;99.90
32536;DHT22;18974;50.838;4.636;2023-08-08T11:50:13;22.40;99.90
32536;DHT22;18974;50.838;4.636;2023-08-08T11:52:45;22.40;99.90
32536;DHT22;18974;50.838;4.636;2023-08-08T11:55:11;22.40;99.90
32536;DHT22;18974;50.838;4.636;2023-08-08T11:57:38;22.30;99.90
32536;DHT22;18974;50.838;4.636;2023-08-08T12:00:06;22.30;99.90
32536;DHT22;18974;50.838;4.636;2023-08-08T12:02:33;22.10;99.90
32536;DHT22;18974;50.838;4.636;2023-08-08T12:05:13;22.20;99.90
32536;DHT22;18974;50.838;4.636;2023-08-08T12:07:42;22.30;99.90
32536;DHT22;18974;50.838;4.636;2023-08-08T12:10:21;22.10;99.90
32536;DHT22;18974;50.838;4.636;2023-08-08T12:12:55;21.90;99.90
32536;DHT22;18974;50.838;4.636;2023-08-08T12:15:22;21.70;99.90
32536;DHT22;18974;50.838;4.636;2023-08-08T12:17:48;21.50;99.90
32536;DHT22;18974;50.838;4.636;2023-08-08T12:20:15;21.30;99.90
32536;DHT22;18974;50.838;4.636;2023-08-08T12:22:40;21.10;99.90
32536;DHT22;18974;50.838;4.636;2023-08-08T12:25:09;21.10;99.90
32536;DHT22;18974;50.838;4.636;2023-08-08T12:27:34;21.10;99.90
32536;DHT22;18974;50.838;4.636;2023-08-08T12:30:00;21.10;99.90
32536;DHT22;18974;50.838;4.636;2023-08-08T12:32:29;21.40;99.90
32536;DHT22;18974;50.838;4.636;2023-08-08T12:34:56;21.90;99.90
32536;DHT22;18974;50.838;4.636;2023-08-08T12:37:23;22.30;99.90
32536;DHT22;18974;50.838;4.636;2023-08-08T12:39:49;22.60;99.90
32536;DHT22;18974;50.838;4.636;2023-08-08T12:42:15;22.70;99.90
32536;DHT22;18974;50.838;4.636;2023-08-08T12:44:41;22.80;99.90
32536;DHT22;18974;50.838;4.636;2023-08-08T12:47:07;22.70;99.90
32536;DHT22;18974;50.838;4.636;2023-08-08T12:49:32;22.30;99.90
32536;DHT22;18974;50.838;4.636;2023-08-08T12:51:58;22.20;99.90
32536;DHT22;18974;50.838;4.636;2023-08-08T12:54:24;22.30;99.90
32536;DHT22;18974;50.838;4.636;2023-08-08T12:56:49;22.40;99.90
32536;DHT22;18974;50.838;4.636;2023-08-08T12:59:15;22.40;99.90
32536;DHT22;18974;50.838;4.636;2023-08-08T13:01:41;22.40;99.90
32536;DHT22;18974;50.838;4.636;2023-08-08T13:04:06;22.60;99.90
32536;DHT22;18974;50.838;4.636;2023-08-08T13:06:32;22.60;99.90
32536;DHT22;18974;50.838;4.636;2023-08-08T13:08:59;22.70;99.90
32536;DHT22;18974;50.838;4.636;2023-08-08T13:11:26;22.90;99.90
32536;DHT22;18974;50.838;4.636;2023-08-08T13:13:52;23.10;99.90
32536;DHT22;18974;50.838;4.636;2023-08-08T13:16:17;23.00;99.90
32536;DHT22;18974;50.838;4.636;2023-08-08T13:18:43;22.80;99.90
32536;DHT22;18974;50.838;4.636;2023-08-08T13:21:09;22.70;99.90
32536;DHT22;18974;50.838;4.636;2023-08-08T13:23:36;22.60;99.90
32536;DHT22;18974;50.838;4.636;2023-08-08T13:26:01;22.60;99.90
32536;DHT22;18974;50.838;4.636;2023-08-08T13:28:29;22.50;99.90
32536;DHT22;18974;50.838;4.636;2023-08-08T13:30:55;22.50;99.90
32536;DHT22;18974;50.838;4.636;2023-08-08T13:33:20;22.60;99.90
32536;DHT22;18974;50.838;4.636;2023-08-08T13:35:46;22.60;99.90
32536;DHT22;18974;50.838;4.636;2023-08-08T13:38:12;22.60;99.90
32536;DHT22;18974;50.838;4.636;2023-08-08T13:40:41;22.60;99.90
32536;DHT22;18974;50.838;4.636;2023-08-08T13:43:07;22.60;99.90
32536;DHT22;18974;50.838;4.636;2023-08-08T13:45:32;22.60;99.90
32536;DHT22;18974;50.838;4.636;2023-08-08T13:47:58;22.70;99.90
32536;DHT22;18974;50.838;4.636;2023-08-08T13:50:24;22.70;99.90
32536;DHT22;18974;50.838;4.636;2023-08-08T13:52:49;22.60;99.90
32536;DHT22;18974;50.838;4.636;2023-08-08T13:55:15;22.50;99.90
32536;DHT22;18974;50.838;4.636;2023-08-08T13:57:41;22.70;99.90
32536;DHT22;18974;50.838;4.636;2023-08-08T14:00:07;22.80;99.90
32536;DHT22;18974;50.838;4.636;2023-08-08T14:02:36;22.70;99.90
32536;DHT22;18974;50.838;4.636;2023-08-08T14:05:01;22.70;99.90
32536;DHT22;18974;50.838;4.636;2023-08-08T14:07:27;22.90;99.90
32536;DHT22;18974;50.838;4.636;2023-08-08T14:09:53;23.40;99.90
32536;DHT22;18974;50.838;4.636;2023-08-08T14:12:19;23.70;99.90
32536;DHT22;18974;50.838;4.636;2023-08-08T14:14:44;23.60;99.90
32536;DHT22;18974;50.838;4.636;2023-08-08T14:17:10;23.40;99.90
32536;DHT22;18974;50.838;4.636;2023-08-08T14:19:36;23.40;99.90
32536;DHT22;18974;50.838;4.636;2023-08-08T14:22:01;23.50;99.90
32536;DHT22;18974;50.838;4.636;2023-08-08T14:24:27;23.40;99.90
32536;DHT22;18974;50.838;4.636;2023-08-08T14:26:53;23.40;99.90
32536;DHT22;18974;50.838;4.636;2023-08-08T14:29:18;23.40;99.90
32536;DHT22;18974;50.838;4.636;2023-08-08T14:31:44;23.20;99.90
32536;DHT22;18974;50.838;4.636;2023-08-08T14:34:10;23.00;99.90
32536;DHT22;18974;50.838;4.636;2023-08-08T14:36:35;22.70;99.90
32536;DHT22;18974;50.838;4.636;2023-08-08T14:39:01;22.30;99.90
32536;DHT22;18974;50.838;4.636;2023-08-08T14:41:27;22.00;99.90
32536;DHT22;18974;50.838;4.636;2023-08-08T14:43:52;21.90;99.90
32536;DHT22;18974;50.838;4.636;2023-08-08T14:46:18;21.60;99.90
32536;DHT22;18974;50.838;4.636;2023-08-08T14:48:44;21.60;99.90
32536;DHT22;18974;50.838;4.636;2023-08-08T14:51:09;21.60;99.90
32536;DHT22;18974;50.838;4.636;2023-08-08T14:53:35;21.70;99.90
32536;DHT22;18974;50.838;4.636;2023-08-08T14:56:01;21.70;99.90
32536;DHT22;18974;50.838;4.636;2023-08-08T14:58:27;21.60;99.90
32536;DHT22;18974;50.838;4.636;2023-08-08T15:00:52;21.40;99.90
32536;DHT22;18974;50.838;4.636;2023-08-08T15:03:18;21.20;99.90
32536;DHT22;18974;50.838;4.636;2023-08-08T15:05:44;21.20;99.90
32536;DHT22;18974;50.838;4.636;2023-08-08T15:08:11;21.20;99.90
32536;DHT22;18974;50.838;4.636;2023-08-08T15:10:36;21.20;99.90
32536;DHT22;18974;50.838;4.636;2023-08-08T15:13:02;21.30;99.90
32536;DHT22;18974;50.838;4.636;2023-08-08T15:15:29;21.40;99.90
32536;DHT22;18974;50.838;4.636;2023-08-08T15:17:55;21.50;99.90
32536;DHT22;18974;50.838;4.636;2023-08-08T15:20:21;21.60;99.90
32536;DHT22;18974;50.838;4.636;2023-08-08T15:22:47;21.50;99.90
32536;DHT22;18974;50.838;4.636;2023-08-08T15:25:12;21.30;99.90
32536;DHT22;18974;50.838;4.636;2023-08-08T15:27:38;21.40;99.90